sensor_id;sensor_type;location;lat;lon;timestamp;pressure;altitude;pressure_sealevel;temperature;humidity
56992;BME280;42885;49.754;18.636;2023-03-22T00:00:31;98185.22;;;10.82;100.00
56992;BME280;42885;49.754;18.636;2023-03-22T00:03:22;98179.80;;;10.92;100.00
56992;BME280;42885;49.754;18.636;2023-03-22T00:06:12;98177.38;;;10.74;100.00
56992;BME280;42885;49.754;18.636;2023-03-22T00:09:02;98170.52;;;10.52;100.00
56992;BME280;42885;49.754;18.636;2023-03-22T00:11:52;98162.00;;;10.55;100.00
56992;BME280;42885;49.754;18.636;2023-03-22T00:14:41;98166.45;;;10.68;100.00
56992;BME280;42885;49.754;18.636;2023-03-22T00:17:31;98155.55;;;10.61;100.00
56992;BME280;42885;49.754;18.636;2023-03-22T00:20:20;98147.88;;;11.00;100.00
56992;BME280;42885;49.754;18.636;2023-03-22T00:23:10;98151.98;;;11.24;100.00
56992;BME280;42885;49.754;18.636;2023-03-22T00:25:59;98147.66;;;11.31;100.00
56992;BME280;42885;49.754;18.636;2023-03-22T00:28:48;98145.28;;;11.40;100.00
56992;BME280;42885;49.754;18.636;2023-03-22T00:31:36;98143.55;;;11.67;100.00
56992;BME280;42885;49.754;18.636;2023-03-22T00:34:31;98140.89;;;11.21;100.00
56992;BME280;42885;49.754;18.636;2023-03-22T00:37:22;98135.78;;;11.65;100.00
56992;BME280;42885;49.754;18.636;2023-03-22T00:40:14;98128.94;;;11.50;100.00
56992;BME280;42885;49.754;18.636;2023-03-22T00:43:03;98134.84;;;11.66;100.00
56992;BME280;42885;49.754;18.636;2023-03-22T00:45:53;98132.13;;;11.68;100.00
56992;BME280;42885;49.754;18.636;2023-03-22T00:48:42;98125.45;;;11.82;100.00
56992;BME280;42885;49.754;18.636;2023-03-22T00:51:32;98120.28;;;11.88;100.00
56992;BME280;42885;49.754;18.636;2023-03-22T00:54:21;98118.66;;;11.93;100.00
56992;BME280;42885;49.754;18.636;2023-03-22T00:57:10;98123.45;;;11.99;100.00
56992;BME280;42885;49.754;18.636;2023-03-22T01:00:00;98119.29;;;11.83;100.00
56992;BME280;42885;49.754;18.636;2023-03-22T01:02:51;98118.03;;;11.76;100.00
56992;BME280;42885;49.754;18.636;2023-03-22T01:05:43;98114.23;;;11.80;100.00
56992;BME280;42885;49.754;18.636;2023-03-22T01:08:32;98117.98;;;11.83;100.00
56992;BME280;42885;49.754;18.636;2023-03-22T01:11:24;98118.17;;;11.80;100.00
56992;BME280;42885;49.754;18.636;2023-03-22T01:14:13;98115.19;;;11.79;100.00
56992;BME280;42885;49.754;18.636;2023-03-22T01:17:02;98112.97;;;11.73;100.00
56992;BME280;42885;49.754;18.636;2023-03-22T01:19:52;98116.70;;;11.63;100.00
56992;BME280;42885;49.754;18.636;2023-03-22T01:22:41;98116.63;;;11.57;100.00
56992;BME280;42885;49.754;18.636;2023-03-22T01:25:30;98116.63;;;11.57;100.00
56992;BME280;42885;49.754;18.636;2023-03-22T01:28:19;98117.37;;;11.47;100.00
56992;BME280;42885;49.754;18.636;2023-03-22T01:31:09;98111.27;;;11.46;100.00
56992;BME280;42885;49.754;18.636;2023-03-22T01:33:58;98111.45;;;11.50;100.00
56992;BME280;42885;49.754;18.636;2023-03-22T01:36:48;98108.05;;;11.35;100.00
56992;BME280;42885;49.754;18.636;2023-03-22T01:39:38;98105.98;;;11.20;100.00
56992;BME280;42885;49.754;18.636;2023-03-22T01:42:28;98095.32;;;11.16;100.00
56992;BME280;42885;49.754;18.636;2023-03-22T01:48:26;98100.53;;;11.23;100.00
56992;BME280;42885;49.754;18.636;2023-03-22T01:51:17;98095.84;;;11.28;100.00
56992;BME280;42885;49.754;18.636;2023-03-22T01:54:43;98091.03;;;11.48;100.00
56992;BME280;42885;49.754;18.636;2023-03-22T01:57:51;98090.93;;;10.96;100.00
56992;BME280;42885;49.754;18.636;2023-03-22T02:00:43;98089.17;;;11.17;100.00
56992;BME280;42885;49.754;18.636;2023-03-22T02:06:36;98089.07;;;10.91;100.00
56992;BME280;42885;49.754;18.636;2023-03-22T02:09:26;98090.95;;;10.89;100.00
56992;BME280;42885;49.754;18.636;2023-03-22T02:15:45;98075.19;;;11.04;100.00
56992;BME280;42885;49.754;18.636;2023-03-22T02:19:07;98077.09;;;10.74;100.00
56992;BME280;42885;49.754;18.636;2023-03-22T02:28:38;98074.06;;;10.53;100.00
56992;BME280;42885;49.754;18.636;2023-03-22T02:55:57;98053.84;;;10.05;100.00
56992;BME280;42885;49.754;18.636;2023-03-22T02:58:47;98056.93;;;9.61;100.00
56992;BME280;42885;49.754;18.636;2023-03-22T03:01:45;98055.16;;;9.91;100.00
56992;BME280;42885;49.754;18.636;2023-03-22T03:04:41;98049.16;;;10.03;100.00
56992;BME280;42885;49.754;18.636;2023-03-22T03:07:26;98053.37;;;9.99;100.00
56992;BME280;42885;49.754;18.636;2023-03-22T03:10:17;98056.19;;;10.03;100.00
56992;BME280;42885;49.754;18.636;2023-03-22T03:13:15;98050.58;;;9.87;100.00
56992;BME280;42885;49.754;18.636;2023-03-22T03:16:05;98058.34;;;9.82;100.00
56992;BME280;42885;49.754;18.636;2023-03-22T03:19:10;98058.24;;;9.69;100.00
56992;BME280;42885;49.754;18.636;2023-03-22T03:22:02;98056.65;;;9.66;100.00
56992;BME280;42885;49.754;18.636;2023-03-22T03:25:39;98059.34;;;9.43;100.00
56992;BME280;42885;49.754;18.636;2023-03-22T03:27:51;98069.56;;;9.01;100.00
56992;BME280;42885;49.754;18.636;2023-03-22T03:30:52;98068.56;;;9.03;100.00
56992;BME280;42885;49.754;18.636;2023-03-22T03:33:43;98071.67;;;9.17;100.00
56992;BME280;42885;49.754;18.636;2023-03-22T03:36:33;98085.27;;;8.92;100.00
56992;BME280;42885;49.754;18.636;2023-03-22T03:39:27;98085.58;;;9.18;100.00
56992;BME280;42885;49.754;18.636;2023-03-22T03:42:17;98080.31;;;9.41;100.00
56992;BME280;42885;49.754;18.636;2023-03-22T03:45:08;98082.01;;;9.49;100.00
56992;BME280;42885;49.754;18.636;2023-03-22T03:48:00;98081.14;;;8.80;100.00
56992;BME280;42885;49.754;18.636;2023-03-22T03:50:51;98080.72;;;8.95;100.00
56992;BME280;42885;49.754;18.636;2023-03-22T03:53:42;98077.12;;;9.36;100.00
56992;BME280;42885;49.754;18.636;2023-03-22T03:56:31;98081.13;;;9.27;100.00
56992;BME280;42885;49.754;18.636;2023-03-22T03:59:20;98084.15;;;9.43;100.00
56992;BME280;42885;49.754;18.636;2023-03-22T04:02:10;98078.55;;;9.49;100.00
56992;BME280;42885;49.754;18.636;2023-03-22T04:05:00;98083.80;;;9.18;100.00
56992;BME280;42885;49.754;18.636;2023-03-22T04:07:49;98085.50;;;8.73;100.00
56992;BME280;42885;49.754;18.636;2023-03-22T04:10:38;98086.64;;;8.60;100.00
56992;BME280;42885;49.754;18.636;2023-03-22T04:13:28;98085.57;;;8.71;100.00
56992;BME280;42885;49.754;18.636;2023-03-22T04:16:18;98087.96;;;8.83;100.00
56992;BME280;42885;49.754;18.636;2023-03-22T04:19:08;98080.37;;;9.32;100.00
56992;BME280;42885;49.754;18.636;2023-03-22T04:21:58;98079.74;;;9.05;100.00
56992;BME280;42885;49.754;18.636;2023-03-22T04:24:47;98071.48;;;9.13;100.00
56992;BME280;42885;49.754;18.636;2023-03-22T04:27:38;98073.50;;;9.39;100.00
56992;BME280;42885;49.754;18.636;2023-03-22T04:30:29;98076.95;;;9.39;100.00
56992;BME280;42885;49.754;18.636;2023-03-22T04:33:24;98075.03;;;9.72;100.00
56992;BME280;42885;49.754;18.636;2023-03-22T04:36:27;98080.36;;;9.85;100.00
56992;BME280;42885;49.754;18.636;2023-03-22T04:39:23;98075.58;;;9.55;100.00
56992;BME280;42885;49.754;18.636;2023-03-22T04:42:14;98080.49;;;9.45;100.00
56992;BME280;42885;49.754;18.636;2023-03-22T04:45:04;98069.80;;;9.72;100.00
56992;BME280;42885;49.754;18.636;2023-03-22T04:47:55;98069.80;;;9.72;100.00
56992;BME280;42885;49.754;18.636;2023-03-22T04:50:45;98080.97;;;9.07;100.00
56992;BME280;42885;49.754;18.636;2023-03-22T04:53:34;98077.93;;;9.22;100.00
56992;BME280;42885;49.754;18.636;2023-03-22T04:56:25;98071.16;;;9.34;100.00
56992;BME280;42885;49.754;18.636;2023-03-22T04:59:16;98072.25;;;9.68;100.00
56992;BME280;42885;49.754;18.636;2023-03-22T05:02:08;98062.25;;;9.74;100.00
56992;BME280;42885;49.754;18.636;2023-03-22T05:04:59;98076.06;;;9.84;100.00
56992;BME280;42885;49.754;18.636;2023-03-22T05:07:51;98080.55;;;9.74;100.00
56992;BME280;42885;49.754;18.636;2023-03-22T05:10:40;98073.59;;;10.81;100.00
56992;BME280;42885;49.754;18.636;2023-03-22T05:13:29;98071.56;;;10.29;100.00
56992;BME280;42885;49.754;18.636;2023-03-22T05:16:19;98073.89;;;10.34;100.00
56992;BME280;42885;49.754;18.636;2023-03-22T05:19:10;98069.57;;;10.33;100.00
56992;BME280;42885;49.754;18.636;2023-03-22T05:22:03;98070.72;;;10.51;100.00
56992;BME280;42885;49.754;18.636;2023-03-22T05:24:54;98072.81;;;10.93;100.00
56992;BME280;42885;49.754;18.636;2023-03-22T05:27:44;98069.71;;;11.14;100.00
56992;BME280;42885;49.754;18.636;2023-03-22T05:30:49;98071.75;;;11.16;100.00
56992;BME280;42885;49.754;18.636;2023-03-22T05:33:43;98065.92;;;11.25;100.00
56992;BME280;42885;49.754;18.636;2023-03-22T05:36:34;98070.98;;;11.21;100.00
56992;BME280;42885;49.754;18.636;2023-03-22T05:39:33;98071.59;;;11.32;100.00
56992;BME280;42885;49.754;18.636;2023-03-22T05:42:22;98067.72;;;11.51;100.00
56992;BME280;42885;49.754;18.636;2023-03-22T05:45:13;98069.03;;;11.64;100.00
56992;BME280;42885;49.754;18.636;2023-03-22T05:48:03;98065.22;;;11.88;100.00
56992;BME280;42885;49.754;18.636;2023-03-22T05:50:52;98072.59;;;11.89;100.00
56992;BME280;42885;49.754;18.636;2023-03-22T05:53:50;98069.89;;;12.03;100.00
56992;BME280;42885;49.754;18.636;2023-03-22T05:56:37;98069.05;;;12.34;100.00
56992;BME280;42885;49.754;18.636;2023-03-22T05:59:28;98078.13;;;12.55;100.00
56992;BME280;42885;49.754;18.636;2023-03-22T06:02:17;98075.70;;;12.51;100.00
56992;BME280;42885;49.754;18.636;2023-03-22T06:05:07;98076.69;;;12.56;100.00
56992;BME280;42885;49.754;18.636;2023-03-22T06:07:59;98074.34;;;12.83;100.00
56992;BME280;42885;49.754;18.636;2023-03-22T06:10:49;98073.47;;;12.77;100.00
56992;BME280;42885;49.754;18.636;2023-03-22T06:13:39;98081.81;;;12.76;100.00
56992;BME280;42885;49.754;18.636;2023-03-22T06:16:28;98082.92;;;12.61;100.00
56992;BME280;42885;49.754;18.636;2023-03-22T06:19:18;98078.63;;;12.78;100.00
56992;BME280;42885;49.754;18.636;2023-03-22T06:22:08;98084.10;;;12.81;100.00
56992;BME280;42885;49.754;18.636;2023-03-22T06:24:57;98086.01;;;12.79;100.00
56992;BME280;42885;49.754;18.636;2023-03-22T06:27:48;98080.61;;;12.99;100.00
56992;BME280;42885;49.754;18.636;2023-03-22T06:30:38;98084.02;;;12.88;100.00
56992;BME280;42885;49.754;18.636;2023-03-22T06:33:28;98091.41;;;12.83;100.00
56992;BME280;42885;49.754;18.636;2023-03-22T06:36:21;98087.91;;;13.07;100.00
56992;BME280;42885;49.754;18.636;2023-03-22T06:39:15;98088.53;;;13.11;100.00
56992;BME280;42885;49.754;18.636;2023-03-22T06:42:05;98081.67;;;12.97;100.00
56992;BME280;42885;49.754;18.636;2023-03-22T06:44:55;98090.19;;;13.06;100.00
56992;BME280;42885;49.754;18.636;2023-03-22T06:47:46;98089.91;;;12.98;100.00
56992;BME280;42885;49.754;18.636;2023-03-22T06:50:55;98084.86;;;13.19;100.00
56992;BME280;42885;49.754;18.636;2023-03-22T06:53:48;98085.11;;;13.46;100.00
56992;BME280;42885;49.754;18.636;2023-03-22T06:56:39;98088.63;;;13.39;99.92
56992;BME280;42885;49.754;18.636;2023-03-22T06:59:28;98090.52;;;13.26;100.00
56992;BME280;42885;49.754;18.636;2023-03-22T07:02:18;98090.63;;;13.30;100.00
56992;BME280;42885;49.754;18.636;2023-03-22T07:05:09;98087.01;;;13.14;100.00
56992;BME280;42885;49.754;18.636;2023-03-22T07:07:59;98083.02;;;13.38;100.00
56992;BME280;42885;49.754;18.636;2023-03-22T07:10:49;98080.84;;;13.32;100.00
56992;BME280;42885;49.754;18.636;2023-03-22T07:13:39;98081.95;;;13.41;100.00
56992;BME280;42885;49.754;18.636;2023-03-22T07:16:30;98086.80;;;13.58;100.00
56992;BME280;42885;49.754;18.636;2023-03-22T07:19:21;98086.45;;;13.63;100.00
56992;BME280;42885;49.754;18.636;2023-03-22T07:22:10;98080.86;;;14.02;96.36
56992;BME280;42885;49.754;18.636;2023-03-22T07:25:00;98086.84;;;14.15;94.93
56992;BME280;42885;49.754;18.636;2023-03-22T07:27:52;98083.03;;;14.02;93.52
56992;BME280;42885;49.754;18.636;2023-03-22T07:30:41;98081.22;;;14.20;93.55
56992;BME280;42885;49.754;18.636;2023-03-22T07:33:30;98075.48;;;14.26;94.05
56992;BME280;42885;49.754;18.636;2023-03-22T07:36:20;98075.23;;;14.29;94.50
56992;BME280;42885;49.754;18.636;2023-03-22T07:39:10;98081.32;;;14.41;96.98
56992;BME280;42885;49.754;18.636;2023-03-22T07:42:01;98079.43;;;14.26;95.79
56992;BME280;42885;49.754;18.636;2023-03-22T07:45:04;98080.36;;;14.54;92.40
56992;BME280;42885;49.754;18.636;2023-03-22T07:48:04;98081.19;;;14.49;92.20
56992;BME280;42885;49.754;18.636;2023-03-22T07:51:01;98089.53;;;14.77;90.52
56992;BME280;42885;49.754;18.636;2023-03-22T07:53:51;98086.64;;;14.85;89.50
56992;BME280;42885;49.754;18.636;2023-03-22T07:56:41;98087.91;;;14.53;90.21
56992;BME280;42885;49.754;18.636;2023-03-22T07:59:32;98084.20;;;14.38;91.84
56992;BME280;42885;49.754;18.636;2023-03-22T08:02:21;98088.55;;;14.72;89.83
56992;BME280;42885;49.754;18.636;2023-03-22T08:05:11;98079.83;;;14.71;89.38
56992;BME280;42885;49.754;18.636;2023-03-22T08:08:02;98069.75;;;14.88;87.10
56992;BME280;42885;49.754;18.636;2023-03-22T08:10:51;98076.38;;;15.09;87.55
56992;BME280;42885;49.754;18.636;2023-03-22T08:13:41;98072.33;;;15.48;85.30
56992;BME280;42885;49.754;18.636;2023-03-22T08:16:31;98071.70;;;15.55;81.54
56992;BME280;42885;49.754;18.636;2023-03-22T08:19:21;98073.18;;;15.48;81.78
56992;BME280;42885;49.754;18.636;2023-03-22T08:22:10;98073.67;;;15.69;79.73
56992;BME280;42885;49.754;18.636;2023-03-22T08:25:04;98075.39;;;16.27;77.19
56992;BME280;42885;49.754;18.636;2023-03-22T08:27:55;98066.59;;;17.12;78.96
56992;BME280;42885;49.754;18.636;2023-03-22T08:30:47;98063.14;;;16.51;73.37
56992;BME280;42885;49.754;18.636;2023-03-22T08:33:37;98059.11;;;16.92;73.47
56992;BME280;42885;49.754;18.636;2023-03-22T08:36:27;98054.52;;;16.94;74.27
56992;BME280;42885;49.754;18.636;2023-03-22T08:39:20;98062.16;;;16.97;72.67
56992;BME280;42885;49.754;18.636;2023-03-22T08:42:12;98059.70;;;16.70;70.81
56992;BME280;42885;49.754;18.636;2023-03-22T08:45:02;98067.27;;;16.49;71.67
56992;BME280;42885;49.754;18.636;2023-03-22T08:47:51;98066.70;;;16.46;72.26
56992;BME280;42885;49.754;18.636;2023-03-22T08:50:42;98061.50;;;16.24;73.57
56992;BME280;42885;49.754;18.636;2023-03-22T08:53:33;98064.02;;;16.36;73.43
56992;BME280;42885;49.754;18.636;2023-03-22T08:56:24;98063.58;;;16.31;73.86
56992;BME280;42885;49.754;18.636;2023-03-22T08:59:18;98067.67;;;16.45;73.85
56992;BME280;42885;49.754;18.636;2023-03-22T09:02:09;98065.63;;;16.43;72.10
56992;BME280;42885;49.754;18.636;2023-03-22T09:05:00;98072.64;;;16.38;73.75
56992;BME280;42885;49.754;18.636;2023-03-22T09:07:53;98069.75;;;16.41;71.22
56992;BME280;42885;49.754;18.636;2023-03-22T09:10:48;98067.82;;;16.28;72.40
56992;BME280;42885;49.754;18.636;2023-03-22T09:13:40;98065.59;;;16.23;72.06
56992;BME280;42885;49.754;18.636;2023-03-22T09:16:29;98063.25;;;16.14;72.87
56992;BME280;42885;49.754;18.636;2023-03-22T09:19:20;98069.93;;;16.34;72.89
56992;BME280;42885;49.754;18.636;2023-03-22T09:22:10;98068.61;;;16.34;72.38
56992;BME280;42885;49.754;18.636;2023-03-22T09:25:03;98064.87;;;16.46;70.68
56992;BME280;42885;49.754;18.636;2023-03-22T09:27:53;98068.59;;;16.59;70.59
56992;BME280;42885;49.754;18.636;2023-03-22T09:30:41;98071.03;;;16.67;70.89
56992;BME280;42885;49.754;18.636;2023-03-22T09:33:35;98070.30;;;16.80;72.29
56992;BME280;42885;49.754;18.636;2023-03-22T09:36:25;98064.36;;;16.72;70.43
56992;BME280;42885;49.754;18.636;2023-03-22T09:39:15;98061.06;;;16.90;69.73
56992;BME280;42885;49.754;18.636;2023-03-22T09:42:12;98060.48;;;16.96;70.00
56992;BME280;42885;49.754;18.636;2023-03-22T09:44:57;98058.86;;;16.60;71.30
56992;BME280;42885;49.754;18.636;2023-03-22T09:47:50;98055.77;;;16.80;70.88
56992;BME280;42885;49.754;18.636;2023-03-22T09:50:49;98051.11;;;16.78;71.61
56992;BME280;42885;49.754;18.636;2023-03-22T09:53:38;98049.72;;;16.84;71.13
56992;BME280;42885;49.754;18.636;2023-03-22T09:56:29;98049.72;;;16.84;71.13
56992;BME280;42885;49.754;18.636;2023-03-22T09:59:24;98049.86;;;16.92;70.59
56992;BME280;42885;49.754;18.636;2023-03-22T10:05:43;98032.61;;;17.27;67.03
56992;BME280;42885;49.754;18.636;2023-03-22T10:08:40;98034.91;;;17.26;66.43
56992;BME280;42885;49.754;18.636;2023-03-22T10:15:44;98025.58;;;17.22;67.25
56992;BME280;42885;49.754;18.636;2023-03-22T10:17:43;98026.77;;;17.14;66.72
56992;BME280;42885;49.754;18.636;2023-03-22T10:26:44;98018.22;;;17.73;64.56
56992;BME280;42885;49.754;18.636;2023-03-22T10:29:38;98013.13;;;18.14;64.01
56992;BME280;42885;49.754;18.636;2023-03-22T10:35:24;97994.93;;;18.15;62.71
56992;BME280;42885;49.754;18.636;2023-03-22T10:38:18;97999.38;;;18.42;62.07
56992;BME280;42885;49.754;18.636;2023-03-22T10:41:07;97998.30;;;18.35;60.77
56992;BME280;42885;49.754;18.636;2023-03-22T10:44:00;97999.47;;;18.69;58.72
56992;BME280;42885;49.754;18.636;2023-03-22T10:46:50;97996.63;;;18.84;58.64
56992;BME280;42885;49.754;18.636;2023-03-22T10:49:43;98000.09;;;18.85;57.71
56992;BME280;42885;49.754;18.636;2023-03-22T10:55:59;97991.69;;;19.61;54.55
56992;BME280;42885;49.754;18.636;2023-03-22T10:58:50;97992.63;;;19.47;54.53
56992;BME280;42885;49.754;18.636;2023-03-22T11:01:44;97990.82;;;19.87;54.00
56992;BME280;42885;49.754;18.636;2023-03-22T11:04:37;97996.10;;;21.02;49.74
56992;BME280;42885;49.754;18.636;2023-03-22T11:07:36;97987.14;;;20.90;47.87
56992;BME280;42885;49.754;18.636;2023-03-22T11:10:33;97987.27;;;21.30;47.42
56992;BME280;42885;49.754;18.636;2023-03-22T11:13:22;97979.83;;;21.82;45.76
56992;BME280;42885;49.754;18.636;2023-03-22T11:16:14;97968.33;;;22.49;45.85
56992;BME280;42885;49.754;18.636;2023-03-22T11:19:04;97972.89;;;22.09;44.68
56992;BME280;42885;49.754;18.636;2023-03-22T11:21:57;97963.66;;;22.98;43.59
56992;BME280;42885;49.754;18.636;2023-03-22T11:24:47;97966.09;;;23.23;43.44
56992;BME280;42885;49.754;18.636;2023-03-22T11:27:36;97955.97;;;23.83;41.49
56992;BME280;42885;49.754;18.636;2023-03-22T11:30:28;97948.06;;;23.85;41.47
56992;BME280;42885;49.754;18.636;2023-03-22T11:33:20;97952.59;;;23.70;41.11
56992;BME280;42885;49.754;18.636;2023-03-22T11:36:17;97945.63;;;24.10;40.16
56992;BME280;42885;49.754;18.636;2023-03-22T11:39:07;97944.27;;;23.95;39.48
56992;BME280;42885;49.754;18.636;2023-03-22T11:42:00;97944.69;;;24.28;39.28
56992;BME280;42885;49.754;18.636;2023-03-22T11:44:51;97936.69;;;24.83;38.08
56992;BME280;42885;49.754;18.636;2023-03-22T11:47:42;97944.66;;;23.91;40.59
56992;BME280;42885;49.754;18.636;2023-03-22T11:50:36;97935.07;;;24.99;38.96
56992;BME280;42885;49.754;18.636;2023-03-22T11:53:26;97939.95;;;23.53;39.89
56992;BME280;42885;49.754;18.636;2023-03-22T11:56:19;97922.02;;;25.18;37.74
56992;BME280;42885;49.754;18.636;2023-03-22T11:59:22;97930.67;;;25.49;36.34
56992;BME280;42885;49.754;18.636;2023-03-22T12:02:27;97919.06;;;26.39;35.67
56992;BME280;42885;49.754;18.636;2023-03-22T12:05:30;97922.23;;;25.17;34.72
56992;BME280;42885;49.754;18.636;2023-03-22T12:08:45;97906.23;;;25.12;34.99
56992;BME280;42885;49.754;18.636;2023-03-22T12:14:20;97924.50;;;24.00;37.02
56992;BME280;42885;49.754;18.636;2023-03-22T12:17:20;97914.26;;;24.08;36.16
56992;BME280;42885;49.754;18.636;2023-03-22T12:22:59;97911.48;;;25.45;33.98
56992;BME280;42885;49.754;18.636;2023-03-22T12:26:05;97907.90;;;25.49;34.17
56992;BME280;42885;49.754;18.636;2023-03-22T12:29:12;97915.61;;;23.17;37.91
56992;BME280;42885;49.754;18.636;2023-03-22T12:32:11;97893.33;;;25.89;32.86
56992;BME280;42885;49.754;18.636;2023-03-22T12:34:59;97896.87;;;24.18;34.80
56992;BME280;42885;49.754;18.636;2023-03-22T12:37:51;97893.66;;;25.24;35.25
56992;BME280;42885;49.754;18.636;2023-03-22T12:40:41;97890.83;;;26.12;32.53
56992;BME280;42885;49.754;18.636;2023-03-22T12:47:22;97903.22;;;23.20;36.60
56992;BME280;42885;49.754;18.636;2023-03-22T12:49:47;97906.78;;;25.01;34.06
56992;BME280;42885;49.754;18.636;2023-03-22T12:52:46;97885.82;;;25.64;33.15
56992;BME280;42885;49.754;18.636;2023-03-22T12:55:39;97897.89;;;24.83;34.82
56992;BME280;42885;49.754;18.636;2023-03-22T12:58:29;97892.61;;;24.68;33.84
56992;BME280;42885;49.754;18.636;2023-03-22T13:01:36;97883.27;;;25.98;33.23
56992;BME280;42885;49.754;18.636;2023-03-22T13:04:30;97881.13;;;25.02;33.77
56992;BME280;42885;49.754;18.636;2023-03-22T13:10:39;97886.66;;;25.65;32.77
56992;BME280;42885;49.754;18.636;2023-03-22T13:13:32;97870.06;;;27.09;32.08
56992;BME280;42885;49.754;18.636;2023-03-22T13:16:41;97876.71;;;28.43;30.04
56992;BME280;42885;49.754;18.636;2023-03-22T13:19:33;97878.84;;;26.86;30.91
56992;BME280;42885;49.754;18.636;2023-03-22T13:22:57;97871.96;;;27.31;31.13
56992;BME280;42885;49.754;18.636;2023-03-22T13:25:34;97866.16;;;26.50;31.44
56992;BME280;42885;49.754;18.636;2023-03-22T13:28:25;97863.58;;;26.60;31.11
56992;BME280;42885;49.754;18.636;2023-03-22T13:34:46;97862.15;;;27.64;30.11
56992;BME280;42885;49.754;18.636;2023-03-22T13:37:45;97858.86;;;28.23;29.28
56992;BME280;42885;49.754;18.636;2023-03-22T13:41:14;97859.05;;;27.67;28.54
56992;BME280;42885;49.754;18.636;2023-03-22T13:44:17;97845.45;;;28.93;27.99
56992;BME280;42885;49.754;18.636;2023-03-22T13:46:56;97854.47;;;26.20;30.60
56992;BME280;42885;49.754;18.636;2023-03-22T13:49:49;97854.73;;;26.15;31.39
56992;BME280;42885;49.754;18.636;2023-03-22T13:52:50;97849.53;;;26.78;30.79
56992;BME280;42885;49.754;18.636;2023-03-22T14:01:35;97847.44;;;24.08;34.35
56992;BME280;42885;49.754;18.636;2023-03-22T14:04:43;97846.75;;;23.84;34.60
56992;BME280;42885;49.754;18.636;2023-03-22T14:07:41;97839.14;;;24.74;33.74
56992;BME280;42885;49.754;18.636;2023-03-22T14:10:39;97842.42;;;24.48;34.67
56992;BME280;42885;49.754;18.636;2023-03-22T14:13:30;97841.70;;;23.03;36.14
56992;BME280;42885;49.754;18.636;2023-03-22T14:16:49;97837.05;;;23.72;35.03
56992;BME280;42885;49.754;18.636;2023-03-22T14:19:34;97826.44;;;25.54;33.13
56992;BME280;42885;49.754;18.636;2023-03-22T14:22:32;97819.58;;;26.14;31.83
56992;BME280;42885;49.754;18.636;2023-03-22T14:25:26;97818.67;;;26.78;31.63
56992;BME280;42885;49.754;18.636;2023-03-22T14:28:20;97817.50;;;27.62;29.95
56992;BME280;42885;49.754;18.636;2023-03-22T14:31:22;97820.16;;;26.02;31.46
56992;BME280;42885;49.754;18.636;2023-03-22T14:34:17;97825.55;;;26.16;31.12
56992;BME280;42885;49.754;18.636;2023-03-22T14:37:11;97828.75;;;24.36;33.04
56992;BME280;42885;49.754;18.636;2023-03-22T14:39:58;97830.95;;;23.41;34.51
56992;BME280;42885;49.754;18.636;2023-03-22T14:42:47;97833.36;;;23.73;34.74
56992;BME280;42885;49.754;18.636;2023-03-22T14:45:36;97831.55;;;24.39;33.20
56992;BME280;42885;49.754;18.636;2023-03-22T14:48:29;97825.73;;;24.79;32.79
56992;BME280;42885;49.754;18.636;2023-03-22T14:51:39;97831.09;;;24.57;33.21
56992;BME280;42885;49.754;18.636;2023-03-22T14:54:25;97821.16;;;24.90;31.94
56992;BME280;42885;49.754;18.636;2023-03-22T14:57:17;97821.28;;;23.10;34.19
56992;BME280;42885;49.754;18.636;2023-03-22T15:00:11;97822.77;;;22.21;36.21
56992;BME280;42885;49.754;18.636;2023-03-22T15:03:02;97817.80;;;22.60;36.52
56992;BME280;42885;49.754;18.636;2023-03-22T15:05:52;97813.22;;;22.26;37.02
56992;BME280;42885;49.754;18.636;2023-03-22T15:08:44;97818.27;;;21.62;37.78
56992;BME280;42885;49.754;18.636;2023-03-22T15:11:36;97810.20;;;21.51;38.16
56992;BME280;42885;49.754;18.636;2023-03-22T15:14:29;97813.08;;;21.41;38.45
56992;BME280;42885;49.754;18.636;2023-03-22T15:17:20;97814.80;;;21.62;38.39
56992;BME280;42885;49.754;18.636;2023-03-22T15:20:16;97817.34;;;21.55;38.70
56992;BME280;42885;49.754;18.636;2023-03-22T15:23:30;97810.33;;;21.22;38.38
56992;BME280;42885;49.754;18.636;2023-03-22T15:26:22;97812.69;;;21.13;38.85
56992;BME280;42885;49.754;18.636;2023-03-22T15:29:07;97810.67;;;21.15;39.06
56992;BME280;42885;49.754;18.636;2023-03-22T15:31:58;97819.12;;;21.31;39.18
56992;BME280;42885;49.754;18.636;2023-03-22T15:34:50;97813.14;;;21.21;39.47
56992;BME280;42885;49.754;18.636;2023-03-22T15:37:46;97813.47;;;21.26;40.00
56992;BME280;42885;49.754;18.636;2023-03-22T15:40:41;97814.41;;;21.41;39.84
56992;BME280;42885;49.754;18.636;2023-03-22T15:43:33;97809.52;;;21.22;40.00
56992;BME280;42885;49.754;18.636;2023-03-22T15:46:23;97809.92;;;20.98;40.34
56992;BME280;42885;49.754;18.636;2023-03-22T15:52:28;97810.75;;;20.82;40.82
56992;BME280;42885;49.754;18.636;2023-03-22T15:55:21;97807.80;;;20.68;41.07
56992;BME280;42885;49.754;18.636;2023-03-22T15:58:40;97808.21;;;21.13;42.74
56992;BME280;42885;49.754;18.636;2023-03-22T16:01:16;97804.32;;;21.24;41.56
56992;BME280;42885;49.754;18.636;2023-03-22T16:04:16;97805.47;;;20.69;41.60
56992;BME280;42885;49.754;18.636;2023-03-22T16:07:01;97808.63;;;20.60;42.12
56992;BME280;42885;49.754;18.636;2023-03-22T16:09:51;97804.33;;;20.51;42.33
56992;BME280;42885;49.754;18.636;2023-03-22T16:12:40;97802.02;;;20.35;43.45
56992;BME280;42885;49.754;18.636;2023-03-22T16:15:32;97811.31;;;20.19;43.21
56992;BME280;42885;49.754;18.636;2023-03-22T16:18:22;97813.66;;;20.14;43.78
56992;BME280;42885;49.754;18.636;2023-03-22T16:21:13;97816.13;;;20.07;43.44
56992;BME280;42885;49.754;18.636;2023-03-22T16:24:04;97814.98;;;20.05;43.62